sensor_id;sensor_type;location;lat;lon;timestamp;P1;durP1;ratioP1;P2;durP2;ratioP2
13319;SDS011;59599;47.608;12.190;2023-10-31T05:01:49;1.20;;;1.10;;
13319;SDS011;59599;47.608;12.190;2023-10-31T05:04:16;0.80;;;0.80;;
13319;SDS011;59599;47.608;12.190;2023-10-31T05:06:42;1.33;;;0.83;;
13319;SDS011;59599;47.608;12.190;2023-10-31T05:09:09;1.10;;;0.60;;
13319;SDS011;59599;47.608;12.190;2023-10-31T05:11:35;1.23;;;0.70;;
13319;SDS011;59599;47.608;12.190;2023-10-31T05:14:01;0.93;;;0.87;;
13319;SDS011;59599;47.608;12.190;2023-10-31T05:16:27;2.20;;;1.40;;
13319;SDS011;59599;47.608;12.190;2023-10-31T05:18:53;1.20;;;1.07;;
13319;SDS011;59599;47.608;12.190;2023-10-31T05:21:19;2.03;;;1.03;;
13319;SDS011;59599;47.608;12.190;2023-10-31T05:23:48;0.93;;;0.90;;
13319;SDS011;59599;47.608;12.190;2023-10-31T05:26:14;1.07;;;0.90;;
13319;SDS011;59599;47.608;12.190;2023-10-31T05:28:40;1.10;;;1.00;;
13319;SDS011;59599;47.608;12.190;2023-10-31T05:31:06;4.23;;;1.90;;
13319;SDS011;59599;47.608;12.190;2023-10-31T05:33:31;0.90;;;0.90;;
13319;SDS011;59599;47.608;12.190;2023-10-31T05:35:57;2.13;;;1.30;;
13319;SDS011;59599;47.608;12.190;2023-10-31T05:38:23;3.23;;;1.53;;
13319;SDS011;59599;47.608;12.190;2023-10-31T05:40:49;1.40;;;1.30;;
13319;SDS011;59599;47.608;12.190;2023-10-31T05:43:15;1.73;;;1.63;;
13319;SDS011;59599;47.608;12.190;2023-10-31T05:45:41;1.70;;;1.60;;
13319;SDS011;59599;47.608;12.190;2023-10-31T05:48:07;2.80;;;1.70;;
13319;SDS011;59599;47.608;12.190;2023-10-31T05:50:33;4.57;;;1.60;;
13319;SDS011;59599;47.608;12.190;2023-10-31T05:52:58;3.00;;;1.30;;
13319;SDS011;59599;47.608;12.190;2023-10-31T05:55:24;2.80;;;1.27;;
13319;SDS011;59599;47.608;12.190;2023-10-31T05:57:50;1.53;;;1.30;;
13319;SDS011;59599;47.608;12.190;2023-10-31T06:00:15;4.07;;;1.47;;
13319;SDS011;59599;47.608;12.190;2023-10-31T06:02:41;1.57;;;1.40;;
13319;SDS011;59599;47.608;12.190;2023-10-31T06:05:07;2.40;;;2.03;;
13319;SDS011;59599;47.608;12.190;2023-10-31T06:07:33;2.10;;;1.70;;
13319;SDS011;59599;47.608;12.190;2023-10-31T06:09:59;4.67;;;1.60;;
13319;SDS011;59599;47.608;12.190;2023-10-31T06:12:25;3.10;;;1.63;;
13319;SDS011;59599;47.608;12.190;2023-10-31T06:14:52;2.23;;;1.80;;
13319;SDS011;59599;47.608;12.190;2023-10-31T06:17:18;2.73;;;1.60;;
13319;SDS011;59599;47.608;12.190;2023-10-31T06:19:44;3.33;;;1.70;;
13319;SDS011;59599;47.608;12.190;2023-10-31T06:22:12;2.53;;;2.13;;
13319;SDS011;59599;47.608;12.190;2023-10-31T06:24:38;2.20;;;2.00;;
13319;SDS011;59599;47.608;12.190;2023-10-31T06:27:05;2.10;;;1.70;;
13319;SDS011;59599;47.608;12.190;2023-10-31T06:29:32;2.00;;;1.80;;
13319;SDS011;59599;47.608;12.190;2023-10-31T06:31:57;2.63;;;2.10;;
13319;SDS011;59599;47.608;12.190;2023-10-31T06:34:23;1.70;;;1.60;;
13319;SDS011;59599;47.608;12.190;2023-10-31T06:36:48;2.00;;;1.70;;
13319;SDS011;59599;47.608;12.190;2023-10-31T06:39:14;3.10;;;2.00;;
13319;SDS011;59599;47.608;12.190;2023-10-31T06:41:40;3.27;;;1.90;;
13319;SDS011;59599;47.608;12.190;2023-10-31T06:44:06;2.03;;;1.57;;
13319;SDS011;59599;47.608;12.190;2023-10-31T06:46:32;1.70;;;1.60;;
13319;SDS011;59599;47.608;12.190;2023-10-31T06:48:58;1.93;;;1.70;;
13319;SDS011;59599;47.608;12.190;2023-10-31T06:51:24;1.50;;;1.40;;
13319;SDS011;59599;47.608;12.190;2023-10-31T06:53:50;3.73;;;1.57;;
13319;SDS011;59599;47.608;12.190;2023-10-31T06:56:16;2.13;;;1.77;;
13319;SDS011;59599;47.608;12.190;2023-10-31T06:58:42;4.87;;;2.20;;
13319;SDS011;59599;47.608;12.190;2023-10-31T07:01:08;2.27;;;2.00;;
13319;SDS011;59599;47.608;12.190;2023-10-31T07:03:34;3.27;;;1.93;;
13319;SDS011;59599;47.608;12.190;2023-10-31T07:05:59;4.33;;;2.63;;
13319;SDS011;59599;47.608;12.190;2023-10-31T07:08:25;2.70;;;2.00;;
13319;SDS011;59599;47.608;12.190;2023-10-31T07:10:51;3.37;;;1.70;;
13319;SDS011;59599;47.608;12.190;2023-10-31T07:13:17;1.73;;;1.53;;
13319;SDS011;59599;47.608;12.190;2023-10-31T07:15:43;2.13;;;1.48;;
13319;SDS011;59599;47.608;12.190;2023-10-31T07:18:09;2.10;;;1.57;;
13319;SDS011;59599;47.608;12.190;2023-10-31T07:20:35;4.00;;;1.90;;
13319;SDS011;59599;47.608;12.190;2023-10-31T07:23:01;2.73;;;1.30;;
13319;SDS011;59599;47.608;12.190;2023-10-31T07:25:27;1.37;;;1.17;;
13319;SDS011;59599;47.608;12.190;2023-10-31T07:27:53;1.47;;;1.37;;
13319;SDS011;59599;47.608;12.190;2023-10-31T07:30:19;1.57;;;1.27;;
13319;SDS011;59599;47.608;12.190;2023-10-31T07:32:45;3.63;;;1.10;;
13319;SDS011;59599;47.608;12.190;2023-10-31T07:35:11;3.67;;;1.17;;
13319;SDS011;59599;47.608;12.190;2023-10-31T07:37:37;3.73;;;1.33;;
13319;SDS011;59599;47.608;12.190;2023-10-31T07:40:03;2.00;;;1.17;;
13319;SDS011;59599;47.608;12.190;2023-10-31T07:42:29;1.17;;;0.80;;
13319;SDS011;59599;47.608;12.190;2023-10-31T07:44:55;2.70;;;1.00;;
13319;SDS011;59599;47.608;12.190;2023-10-31T07:47:21;3.63;;;1.70;;
13319;SDS011;59599;47.608;12.190;2023-10-31T07:49:46;3.17;;;1.53;;
13319;SDS011;59599;47.608;12.190;2023-10-31T07:52:13;2.70;;;1.60;;
13319;SDS011;59599;47.608;12.190;2023-10-31T07:54:39;5.93;;;2.30;;
13319;SDS011;59599;47.608;12.190;2023-10-31T07:57:07;4.20;;;1.90;;
13319;SDS011;59599;47.608;12.190;2023-10-31T07:59:33;2.67;;;1.97;;
13319;SDS011;59599;47.608;12.190;2023-10-31T08:01:59;2.57;;;2.10;;
13319;SDS011;59599;47.608;12.190;2023-10-31T08:04:25;4.63;;;3.00;;
13319;SDS011;59599;47.608;12.190;2023-10-31T08:06:53;5.00;;;3.90;;
13319;SDS011;59599;47.608;12.190;2023-10-31T08:09:19;5.57;;;2.73;;
13319;SDS011;59599;47.608;12.190;2023-10-31T08:11:44;3.97;;;1.83;;
13319;SDS011;59599;47.608;12.190;2023-10-31T08:14:10;3.17;;;2.60;;
13319;SDS011;59599;47.608;12.190;2023-10-31T08:16:36;3.13;;;2.70;;
13319;SDS011;59599;47.608;12.190;2023-10-31T08:19:02;2.20;;;1.80;;
13319;SDS011;59599;47.608;12.190;2023-10-31T08:21:28;2.00;;;1.80;;
13319;SDS011;59599;47.608;12.190;2023-10-31T08:24:03;3.50;;;1.47;;
13319;SDS011;59599;47.608;12.190;2023-10-31T08:26:32;1.97;;;1.77;;
13319;SDS011;59599;47.608;12.190;2023-10-31T08:28:59;3.07;;;1.73;;
13319;SDS011;59599;47.608;12.190;2023-10-31T08:31:24;3.17;;;1.80;;
13319;SDS011;59599;47.608;12.190;2023-10-31T08:33:50;3.93;;;1.50;;
13319;SDS011;59599;47.608;12.190;2023-10-31T08:36:16;2.07;;;1.40;;
13319;SDS011;59599;47.608;12.190;2023-10-31T08:38:42;6.63;;;3.97;;
13319;SDS011;59599;47.608;12.190;2023-10-31T08:41:11;3.20;;;1.80;;
13319;SDS011;59599;47.608;12.190;2023-10-31T08:43:37;2.07;;;1.50;;
13319;SDS011;59599;47.608;12.190;2023-10-31T08:46:04;4.00;;;1.57;;
13319;SDS011;59599;47.608;12.190;2023-10-31T08:48:30;2.60;;;1.90;;
13319;SDS011;59599;47.608;12.190;2023-10-31T08:50:56;5.43;;;3.30;;
13319;SDS011;59599;47.608;12.190;2023-10-31T08:53:22;3.37;;;2.27;;
13319;SDS011;59599;47.608;12.190;2023-10-31T08:55:48;5.40;;;2.00;;
13319;SDS011;59599;47.608;12.190;2023-10-31T08:58:14;2.30;;;1.80;;
13319;SDS011;59599;47.608;12.190;2023-10-31T09:00:40;6.33;;;1.80;;
13319;SDS011;59599;47.608;12.190;2023-10-31T09:03:06;4.17;;;1.97;;
13319;SDS011;59599;47.608;12.190;2023-10-31T09:05:33;3.07;;;1.90;;
13319;SDS011;59599;47.608;12.190;2023-10-31T09:07:59;3.80;;;1.63;;
13319;SDS011;59599;47.608;12.190;2023-10-31T09:10:24;3.33;;;1.80;;
13319;SDS011;59599;47.608;12.190;2023-10-31T09:12:51;2.93;;;1.77;;
13319;SDS011;59599;47.608;12.190;2023-10-31T09:15:17;5.73;;;1.80;;
13319;SDS011;59599;47.608;12.190;2023-10-31T09:17:44;3.20;;;1.60;;
13319;SDS011;59599;47.608;12.190;2023-10-31T09:20:10;2.50;;;1.93;;
13319;SDS011;59599;47.608;12.190;2023-10-31T09:22:36;2.67;;;1.90;;
13319;SDS011;59599;47.608;12.190;2023-10-31T09:25:02;3.87;;;1.97;;
13319;SDS011;59599;47.608;12.190;2023-10-31T09:27:28;1.47;;;0.97;;
13319;SDS011;59599;47.608;12.190;2023-10-31T09:29:54;1.50;;;1.07;;
13319;SDS011;59599;47.608;12.190;2023-10-31T09:32:19;0.60;;;0.57;;
13319;SDS011;59599;47.608;12.190;2023-10-31T09:34:45;2.43;;;0.50;;
13319;SDS011;59599;47.608;12.190;2023-10-31T09:37:12;0.40;;;0.40;;
13319;SDS011;59599;47.608;12.190;2023-10-31T09:39:38;0.37;;;0.30;;
13319;SDS011;59599;47.608;12.190;2023-10-31T09:42:04;0.50;;;0.40;;
13319;SDS011;59599;47.608;12.190;2023-10-31T09:44:31;0.70;;;0.60;;
13319;SDS011;59599;47.608;12.190;2023-10-31T09:46:57;0.60;;;0.60;;
13319;SDS011;59599;47.608;12.190;2023-10-31T09:49:23;0.60;;;0.60;;
13319;SDS011;59599;47.608;12.190;2023-10-31T09:51:49;0.93;;;0.53;;
13319;SDS011;59599;47.608;12.190;2023-10-31T09:54:16;0.97;;;0.60;;
13319;SDS011;59599;47.608;12.190;2023-10-31T09:56:42;4.77;;;1.00;;
13319;SDS011;59599;47.608;12.190;2023-10-31T09:59:08;1.10;;;0.90;;
13319;SDS011;59599;47.608;12.190;2023-10-31T10:01:35;1.00;;;0.90;;
13319;SDS011;59599;47.608;12.190;2023-10-31T10:04:01;1.43;;;1.17;;
13319;SDS011;59599;47.608;12.190;2023-10-31T10:06:27;1.10;;;1.00;;
13319;SDS011;59599;47.608;12.190;2023-10-31T10:08:55;2.30;;;1.00;;
13319;SDS011;59599;47.608;12.190;2023-10-31T10:11:21;1.20;;;1.00;;
13319;SDS011;59599;47.608;12.190;2023-10-31T10:13:47;1.10;;;0.80;;
13319;SDS011;59599;47.608;12.190;2023-10-31T10:16:13;0.77;;;0.70;;
13319;SDS011;59599;47.608;12.190;2023-10-31T10:18:53;0.93;;;0.80;;
13319;SDS011;59599;47.608;12.190;2023-10-31T10:21:19;1.70;;;1.10;;
13319;SDS011;59599;47.608;12.190;2023-10-31T10:23:45;1.70;;;0.83;;
13319;SDS011;59599;47.608;12.190;2023-10-31T10:26:14;0.80;;;0.80;;
13319;SDS011;59599;47.608;12.190;2023-10-31T10:28:40;1.37;;;1.10;;
13319;SDS011;59599;47.608;12.190;2023-10-31T10:31:06;0.57;;;0.57;;
13319;SDS011;59599;47.608;12.190;2023-10-31T10:33:33;0.67;;;0.67;;
13319;SDS011;59599;47.608;12.190;2023-10-31T10:35:59;0.83;;;0.83;;
13319;SDS011;59599;47.608;12.190;2023-10-31T10:38:25;4.10;;;0.90;;
13319;SDS011;59599;47.608;12.190;2023-10-31T10:40:51;2.03;;;1.27;;
13319;SDS011;59599;47.608;12.190;2023-10-31T10:45:45;1.73;;;1.20;;
13319;SDS011;59599;47.608;12.190;2023-10-31T10:48:13;3.57;;;1.47;;
13319;SDS011;59599;47.608;12.190;2023-10-31T10:50:42;1.60;;;1.20;;
13319;SDS011;59599;47.608;12.190;2023-10-31T10:53:14;1.67;;;1.20;;
13319;SDS011;59599;47.608;12.190;2023-10-31T10:55:47;2.60;;;1.00;;
13319;SDS011;59599;47.608;12.190;2023-10-31T11:01:25;1.60;;;1.30;;
13319;SDS011;59599;47.608;12.190;2023-10-31T11:03:53;2.17;;;1.20;;
13319;SDS011;59599;47.608;12.190;2023-10-31T11:06:20;2.07;;;1.20;;
13319;SDS011;59599;47.608;12.190;2023-10-31T11:08:47;5.37;;;1.57;;
13319;SDS011;59599;47.608;12.190;2023-10-31T11:11:13;4.83;;;2.43;;
13319;SDS011;59599;47.608;12.190;2023-10-31T11:13:43;1.77;;;1.40;;
13319;SDS011;59599;47.608;12.190;2023-10-31T11:16:12;2.03;;;1.23;;
13319;SDS011;59599;47.608;12.190;2023-10-31T11:18:42;1.53;;;1.20;;
13319;SDS011;59599;47.608;12.190;2023-10-31T11:21:08;1.83;;;1.40;;
13319;SDS011;59599;47.608;12.190;2023-10-31T11:23:34;1.20;;;1.10;;
13319;SDS011;59599;47.608;12.190;2023-10-31T11:26:01;1.10;;;0.97;;
13319;SDS011;59599;47.608;12.190;2023-10-31T11:28:27;2.13;;;1.60;;
13319;SDS011;59599;47.608;12.190;2023-10-31T11:30:52;1.93;;;1.73;;
13319;SDS011;59599;47.608;12.190;2023-10-31T11:33:24;3.70;;;2.03;;
13319;SDS011;59599;47.608;12.190;2023-10-31T11:35:51;1.53;;;1.20;;
13319;SDS011;59599;47.608;12.190;2023-10-31T11:38:30;1.90;;;1.30;;
13319;SDS011;59599;47.608;12.190;2023-10-31T11:40:59;2.13;;;1.70;;
13319;SDS011;59599;47.608;12.190;2023-10-31T11:43:26;4.10;;;3.03;;
13319;SDS011;59599;47.608;12.190;2023-10-31T11:46:00;2.73;;;1.77;;
13319;SDS011;59599;47.608;12.190;2023-10-31T11:48:45;2.00;;;1.27;;
13319;SDS011;59599;47.608;12.190;2023-10-31T11:51:12;1.87;;;1.30;;
13319;SDS011;59599;47.608;12.190;2023-10-31T11:53:38;1.60;;;1.23;;
13319;SDS011;59599;47.608;12.190;2023-10-31T11:56:05;3.03;;;1.40;;
13319;SDS011;59599;47.608;12.190;2023-10-31T11:58:31;1.80;;;1.33;;
13319;SDS011;59599;47.608;12.190;2023-10-31T12:01:03;1.67;;;1.20;;
13319;SDS011;59599;47.608;12.190;2023-10-31T12:03:40;2.10;;;1.50;;
13319;SDS011;59599;47.608;12.190;2023-10-31T12:06:06;3.90;;;1.60;;
13319;SDS011;59599;47.608;12.190;2023-10-31T12:08:40;1.53;;;1.17;;
13319;SDS011;59599;47.608;12.190;2023-10-31T12:11:07;2.57;;;1.73;;
13319;SDS011;59599;47.608;12.190;2023-10-31T12:13:35;2.07;;;1.30;;
13319;SDS011;59599;47.608;12.190;2023-10-31T12:16:01;1.63;;;1.37;;
13319;SDS011;59599;47.608;12.190;2023-10-31T12:18:27;2.20;;;1.23;;
13319;SDS011;59599;47.608;12.190;2023-10-31T12:20:53;3.17;;;2.00;;
13319;SDS011;59599;47.608;12.190;2023-10-31T12:23:20;2.90;;;1.30;;
13319;SDS011;59599;47.608;12.190;2023-10-31T12:25:47;2.30;;;1.50;;
13319;SDS011;59599;47.608;12.190;2023-10-31T12:28:16;2.17;;;1.17;;
13319;SDS011;59599;47.608;12.190;2023-10-31T12:30:53;2.80;;;1.40;;
13319;SDS011;59599;47.608;12.190;2023-10-31T12:33:25;1.50;;;1.20;;
13319;SDS011;59599;47.608;12.190;2023-10-31T12:35:56;2.20;;;1.90;;
13319;SDS011;59599;47.608;12.190;2023-10-31T12:38:23;1.43;;;1.20;;
13319;SDS011;59599;47.608;12.190;2023-10-31T12:40:49;1.33;;;1.00;;
13319;SDS011;59599;47.608;12.190;2023-10-31T12:43:15;2.00;;;1.23;;
13319;SDS011;59599;47.608;12.190;2023-10-31T12:45:41;1.90;;;1.10;;
13319;SDS011;59599;47.608;12.190;2023-10-31T12:48:08;3.20;;;1.33;;
13319;SDS011;59599;47.608;12.190;2023-10-31T12:50:35;4.03;;;1.30;;
13319;SDS011;59599;47.608;12.190;2023-10-31T12:53:02;3.77;;;2.00;;
13319;SDS011;59599;47.608;12.190;2023-10-31T12:55:28;5.13;;;2.10;;
13319;SDS011;59599;47.608;12.190;2023-10-31T12:57:55;1.60;;;1.13;;
13319;SDS011;59599;47.608;12.190;2023-10-31T13:00:21;1.53;;;1.17;;
13319;SDS011;59599;47.608;12.190;2023-10-31T13:03:00;1.55;;;1.15;;
13319;SDS011;59599;47.608;12.190;2023-10-31T13:05:27;3.77;;;1.40;;
13319;SDS011;59599;47.608;12.190;2023-10-31T13:07:54;1.83;;;1.27;;
13319;SDS011;59599;47.608;12.190;2023-10-31T13:10:22;3.30;;;1.43;;
13319;SDS011;59599;47.608;12.190;2023-10-31T13:12:49;1.70;;;1.40;;
13319;SDS011;59599;47.608;12.190;2023-10-31T13:15:15;1.70;;;1.13;;
13319;SDS011;59599;47.608;12.190;2023-10-31T13:17:43;1.37;;;1.23;;
13319;SDS011;59599;47.608;12.190;2023-10-31T13:20:09;3.23;;;1.30;;
13319;SDS011;59599;47.608;12.190;2023-10-31T13:22:36;1.73;;;1.20;;
13319;SDS011;59599;47.608;12.190;2023-10-31T13:25:05;2.17;;;1.10;;
13319;SDS011;59599;47.608;12.190;2023-10-31T13:27:35;1.73;;;1.20;;
13319;SDS011;59599;47.608;12.190;2023-10-31T13:30:02;1.20;;;1.10;;
13319;SDS011;59599;47.608;12.190;2023-10-31T13:32:29;2.50;;;1.15;;
13319;SDS011;59599;47.608;12.190;2023-10-31T13:34:55;1.73;;;1.00;;
13319;SDS011;59599;47.608;12.190;2023-10-31T13:37:20;1.93;;;1.30;;
13319;SDS011;59599;47.608;12.190;2023-10-31T13:39:46;1.53;;;1.30;;
13319;SDS011;59599;47.608;12.190;2023-10-31T13:42:12;1.27;;;1.03;;
13319;SDS011;59599;47.608;12.190;2023-10-31T13:44:39;1.33;;;1.00;;
13319;SDS011;59599;47.608;12.190;2023-10-31T13:47:05;1.60;;;1.03;;
13319;SDS011;59599;47.608;12.190;2023-10-31T13:49:31;1.60;;;1.20;;
13319;SDS011;59599;47.608;12.190;2023-10-31T13:51:56;3.57;;;1.30;;
13319;SDS011;59599;47.608;12.190;2023-10-31T13:54:22;1.87;;;1.40;;
13319;SDS011;59599;47.608;12.190;2023-10-31T13:56:48;2.27;;;1.37;;
13319;SDS011;59599;47.608;12.190;2023-10-31T13:59:14;1.30;;;1.00;;
13319;SDS011;59599;47.608;12.190;2023-10-31T14:01:40;1.93;;;1.50;;
13319;SDS011;59599;47.608;12.190;2023-10-31T14:04:07;2.33;;;1.53;;
13319;SDS011;59599;47.608;12.190;2023-10-31T14:06:33;1.47;;;1.13;;
13319;SDS011;59599;47.608;12.190;2023-10-31T14:08:59;2.20;;;1.70;;
13319;SDS011;59599;47.608;12.190;2023-10-31T14:11:29;2.67;;;1.53;;
13319;SDS011;59599;47.608;12.190;2023-10-31T14:13:55;2.03;;;1.40;;
13319;SDS011;59599;47.608;12.190;2023-10-31T14:16:24;2.53;;;2.27;;
13319;SDS011;59599;47.608;12.190;2023-10-31T14:18:49;1.90;;;1.50;;
13319;SDS011;59599;47.608;12.190;2023-10-31T14:21:15;1.23;;;1.00;;
13319;SDS011;59599;47.608;12.190;2023-10-31T14:23:41;2.53;;;1.20;;
13319;SDS011;59599;47.608;12.190;2023-10-31T14:26:07;1.50;;;1.27;;
13319;SDS011;59599;47.608;12.190;2023-10-31T14:28:33;8.63;;;7.73;;
13319;SDS011;59599;47.608;12.190;2023-10-31T14:30:59;8.27;;;7.47;;
13319;SDS011;59599;47.608;12.190;2023-10-31T14:33:25;7.23;;;3.43;;
13319;SDS011;59599;47.608;12.190;2023-10-31T14:35:51;9.23;;;2.17;;
13319;SDS011;59599;47.608;12.190;2023-10-31T14:38:17;6.77;;;2.27;;
13319;SDS011;59599;47.608;12.190;2023-10-31T14:40:43;2.00;;;1.50;;
13319;SDS011;59599;47.608;12.190;2023-10-31T14:43:09;2.47;;;1.70;;
13319;SDS011;59599;47.608;12.190;2023-10-31T14:45:35;4.37;;;1.53;;
13319;SDS011;59599;47.608;12.190;2023-10-31T14:48:02;3.30;;;1.67;;
13319;SDS011;59599;47.608;12.190;2023-10-31T14:50:28;3.73;;;1.60;;
13319;SDS011;59599;47.608;12.190;2023-10-31T14:52:53;2.13;;;1.57;;
13319;SDS011;59599;47.608;12.190;2023-10-31T14:55:19;4.23;;;1.50;;
13319;SDS011;59599;47.608;12.190;2023-10-31T14:57:45;4.23;;;1.90;;
13319;SDS011;59599;47.608;12.190;2023-10-31T15:00:11;3.10;;;1.30;;
13319;SDS011;59599;47.608;12.190;2023-10-31T15:02:38;2.40;;;1.60;;
13319;SDS011;59599;47.608;12.190;2023-10-31T15:05:04;3.20;;;1.40;;
13319;SDS011;59599;47.608;12.190;2023-10-31T15:07:30;1.47;;;1.20;;
13319;SDS011;59599;47.608;12.190;2023-10-31T15:09:56;3.07;;;1.60;;
13319;SDS011;59599;47.608;12.190;2023-10-31T15:12:22;2.27;;;1.40;;
13319;SDS011;59599;47.608;12.190;2023-10-31T15:14:48;1.40;;;1.30;;
13319;SDS011;59599;47.608;12.190;2023-10-31T15:17:14;2.80;;;1.60;;
13319;SDS011;59599;47.608;12.190;2023-10-31T15:19:40;2.30;;;1.57;;
13319;SDS011;59599;47.608;12.190;2023-10-31T15:22:07;2.47;;;2.00;;
13319;SDS011;59599;47.608;12.190;2023-10-31T15:24:33;5.53;;;2.57;;
13319;SDS011;59599;47.608;12.190;2023-10-31T15:26:59;1.70;;;1.50;;
13319;SDS011;59599;47.608;12.190;2023-10-31T15:29:25;2.77;;;2.27;;
13319;SDS011;59599;47.608;12.190;2023-10-31T15:31:50;4.33;;;2.80;;
13319;SDS011;59599;47.608;12.190;2023-10-31T15:34:19;3.57;;;3.10;;
13319;SDS011;59599;47.608;12.190;2023-10-31T15:36:45;5.57;;;2.83;;
13319;SDS011;59599;47.608;12.190;2023-10-31T15:39:11;4.07;;;3.10;;
13319;SDS011;59599;47.608;12.190;2023-10-31T15:41:37;6.67;;;4.40;;
13319;SDS011;59599;47.608;12.190;2023-10-31T15:44:03;2.93;;;2.10;;
13319;SDS011;59599;47.608;12.190;2023-10-31T15:46:30;3.40;;;1.70;;
13319;SDS011;59599;47.608;12.190;2023-10-31T15:48:55;4.77;;;1.93;;
13319;SDS011;59599;47.608;12.190;2023-10-31T15:51:21;2.07;;;1.70;;
13319;SDS011;59599;47.608;12.190;2023-10-31T15:53:47;4.30;;;1.70;;
13319;SDS011;59599;47.608;12.190;2023-10-31T15:56:13;3.63;;;1.60;;
13319;SDS011;59599;47.608;12.190;2023-10-31T15:58:39;4.43;;;2.47;;
13319;SDS011;59599;47.608;12.190;2023-10-31T16:01:05;5.50;;;2.50;;
13319;SDS011;59599;47.608;12.190;2023-10-31T16:03:31;8.00;;;2.63;;
13319;SDS011;59599;47.608;12.190;2023-10-31T16:05:57;2.77;;;2.27;;
13319;SDS011;59599;47.608;12.190;2023-10-31T16:08:23;2.43;;;2.17;;
13319;SDS011;59599;47.608;12.190;2023-10-31T16:10:49;2.90;;;2.30;;
13319;SDS011;59599;47.608;12.190;2023-10-31T16:13:15;3.00;;;2.20;;
13319;SDS011;59599;47.608;12.190;2023-10-31T16:15:41;3.23;;;1.87;;
13319;SDS011;59599;47.608;12.190;2023-10-31T16:18:06;3.00;;;1.70;;
13319;SDS011;59599;47.608;12.190;2023-10-31T16:20:32;2.97;;;1.90;;
13319;SDS011;59599;47.608;12.190;2023-10-31T16:22:59;2.43;;;2.10;;
13319;SDS011;59599;47.608;12.190;2023-10-31T16:25:25;2.93;;;1.80;;
13319;SDS011;59599;47.608;12.190;2023-10-31T16:27:51;2.60;;;1.70;;
13319;SDS011;59599;47.608;12.190;2023-10-31T16:30:17;4.23;;;1.80;;
13319;SDS011;59599;47.608;12.190;2023-10-31T16:32:43;5.43;;;1.90;;
13319;SDS011;59599;47.608;12.190;2023-10-31T16:35:09;2.03;;;1.70;;
13319;SDS011;59599;47.608;12.190;2023-10-31T16:37:36;2.83;;;1.90;;
13319;SDS011;59599;47.608;12.190;2023-10-31T16:40:01;2.87;;;1.80;;
13319;SDS011;59599;47.608;12.190;2023-10-31T16:42:27;2.27;;;1.70;;
13319;SDS011;59599;47.608;12.190;2023-10-31T16:45:00;4.20;;;1.80;;
13319;SDS011;59599;47.608;12.190;2023-10-31T16:47:26;2.20;;;1.67;;
13319;SDS011;59599;47.608;12.190;2023-10-31T16:49:52;2.57;;;2.13;;
13319;SDS011;59599;47.608;12.190;2023-10-31T16:52:18;2.87;;;1.90;;
13319;SDS011;59599;47.608;12.190;2023-10-31T16:54:44;2.73;;;1.90;;
13319;SDS011;59599;47.608;12.190;2023-10-31T16:57:10;6.20;;;1.70;;
13319;SDS011;59599;47.608;12.190;2023-10-31T16:59:36;2.50;;;1.63;;
13319;SDS011;59599;47.608;12.190;2023-10-31T17:02:02;2.30;;;1.70;;
13319;SDS011;59599;47.608;12.190;2023-10-31T17:04:28;3.03;;;2.13;;
13319;SDS011;59599;47.608;12.190;2023-10-31T17:06:54;2.97;;;2.50;;
13319;SDS011;59599;47.608;12.190;2023-10-31T17:09:20;3.50;;;2.43;;
13319;SDS011;59599;47.608;12.190;2023-10-31T17:11:46;6.27;;;2.80;;
13319;SDS011;59599;47.608;12.190;2023-10-31T17:14:11;4.60;;;3.37;;
13319;SDS011;59599;47.608;12.190;2023-10-31T17:16:37;5.30;;;3.53;;
13319;SDS011;59599;47.608;12.190;2023-10-31T17:19:02;5.20;;;3.40;;
13319;SDS011;59599;47.608;12.190;2023-10-31T17:21:28;6.60;;;3.90;;
13319;SDS011;59599;47.608;12.190;2023-10-31T17:23:54;5.20;;;3.77;;
13319;SDS011;59599;47.608;12.190;2023-10-31T17:26:20;6.67;;;3.50;;
13319;SDS011;59599;47.608;12.190;2023-10-31T17:28:46;4.67;;;3.37;;
13319;SDS011;59599;47.608;12.190;2023-10-31T17:31:12;5.00;;;3.90;;
13319;SDS011;59599;47.608;12.190;2023-10-31T17:33:38;3.73;;;3.27;;
13319;SDS011;59599;47.608;12.190;2023-10-31T17:36:08;5.03;;;2.83;;
13319;SDS011;59599;47.608;12.190;2023-10-31T17:38:35;3.87;;;2.83;;
13319;SDS011;59599;47.608;12.190;2023-10-31T17:41:01;3.23;;;2.43;;
13319;SDS011;59599;47.608;12.190;2023-10-31T17:43:27;3.17;;;2.70;;
13319;SDS011;59599;47.608;12.190;2023-10-31T17:45:53;2.33;;;2.13;;
13319;SDS011;59599;47.608;12.190;2023-10-31T17:48:19;3.93;;;1.87;;
13319;SDS011;59599;47.608;12.190;2023-10-31T17:50:45;2.73;;;2.13;;
13319;SDS011;59599;47.608;12.190;2023-10-31T17:53:11;1.60;;;1.50;;
13319;SDS011;59599;47.608;12.190;2023-10-31T17:55:37;5.50;;;2.37;;
13319;SDS011;59599;47.608;12.190;2023-10-31T17:58:03;3.67;;;2.53;;
13319;SDS011;59599;47.608;12.190;2023-10-31T18:00:29;4.30;;;2.20;;
13319;SDS011;59599;47.608;12.190;2023-10-31T18:02:55;5.43;;;4.17;;
13319;SDS011;59599;47.608;12.190;2023-10-31T18:05:23;6.60;;;5.23;;
13319;SDS011;59599;47.608;12.190;2023-10-31T18:07:49;6.20;;;5.13;;
13319;SDS011;59599;47.608;12.190;2023-10-31T18:10:15;7.77;;;5.20;;
13319;SDS011;59599;47.608;12.190;2023-10-31T18:12:41;5.17;;;4.67;;
13319;SDS011;59599;47.608;12.190;2023-10-31T18:15:08;5.10;;;4.47;;
13319;SDS011;59599;47.608;12.190;2023-10-31T18:17:34;6.87;;;4.80;;
13319;SDS011;59599;47.608;12.190;2023-10-31T18:20:01;6.07;;;4.50;;
13319;SDS011;59599;47.608;12.190;2023-10-31T18:22:27;9.10;;;4.60;;
13319;SDS011;59599;47.608;12.190;2023-10-31T18:24:52;6.57;;;5.00;;
13319;SDS011;59599;47.608;12.190;2023-10-31T18:27:18;7.13;;;4.77;;
13319;SDS011;59599;47.608;12.190;2023-10-31T18:29:44;7.13;;;4.60;;
13319;SDS011;59599;47.608;12.190;2023-10-31T18:32:10;6.73;;;4.80;;
13319;SDS011;59599;47.608;12.190;2023-10-31T18:34:36;6.97;;;4.77;;
13319;SDS011;59599;47.608;12.190;2023-10-31T18:37:02;3.90;;;3.50;;
13319;SDS011;59599;47.608;12.190;2023-10-31T18:39:28;6.07;;;3.23;;
13319;SDS011;59599;47.608;12.190;2023-10-31T18:41:54;3.83;;;3.23;;
13319;SDS011;59599;47.608;12.190;2023-10-31T18:44:20;4.40;;;3.57;;
13319;SDS011;59599;47.608;12.190;2023-10-31T18:46:46;5.77;;;4.50;;
13319;SDS011;59599;47.608;12.190;2023-10-31T18:49:13;5.13;;;3.80;;
13319;SDS011;59599;47.608;12.190;2023-10-31T18:51:38;4.23;;;3.57;;
13319;SDS011;59599;47.608;12.190;2023-10-31T18:54:04;4.73;;;3.37;;
13319;SDS011;59599;47.608;12.190;2023-10-31T18:56:30;5.37;;;4.03;;
13319;SDS011;59599;47.608;12.190;2023-10-31T18:58:56;6.63;;;4.37;;
13319;SDS011;59599;47.608;12.190;2023-10-31T19:01:22;6.17;;;4.10;;
13319;SDS011;59599;47.608;12.190;2023-10-31T19:03:49;4.87;;;4.20;;
13319;SDS011;59599;47.608;12.190;2023-10-31T19:06:15;3.27;;;2.43;;
13319;SDS011;59599;47.608;12.190;2023-10-31T19:08:41;2.80;;;2.50;;
13319;SDS011;59599;47.608;12.190;2023-10-31T19:11:07;3.77;;;2.60;;
13319;SDS011;59599;47.608;12.190;2023-10-31T19:13:32;3.07;;;2.40;;
13319;SDS011;59599;47.608;12.190;2023-10-31T19:16:00;3.83;;;3.30;;
13319;SDS011;59599;47.608;12.190;2023-10-31T19:18:26;4.83;;;2.93;;
13319;SDS011;59599;47.608;12.190;2023-10-31T19:20:52;2.90;;;2.60;;
13319;SDS011;59599;47.608;12.190;2023-10-31T19:23:17;2.90;;;2.60;;
13319;SDS011;59599;47.608;12.190;2023-10-31T19:25:43;2.80;;;2.53;;
13319;SDS011;59599;47.608;12.190;2023-10-31T19:28:09;4.87;;;4.00;;
13319;SDS011;59599;47.608;12.190;2023-10-31T19:30:35;4.47;;;4.00;;
13319;SDS011;59599;47.608;12.190;2023-10-31T19:33:01;7.80;;;4.43;;
13319;SDS011;59599;47.608;12.190;2023-10-31T19:35:27;7.03;;;5.40;;